createdAt,value
2022-09-02T00:00:07.631Z,32.15
2022-09-02T00:01:07.633Z,31.95
2022-09-02T00:02:07.798Z,32.15
2022-09-02T00:03:07.766Z,32.05
2022-09-02T00:04:07.633Z,32.15
2022-09-02T00:05:07.634Z,32.15
2022-09-02T00:06:07.636Z,31.95
2022-09-02T00:07:07.635Z,32.15
2022-09-02T00:08:07.635Z,31.95
2022-09-02T00:09:07.645Z,31.95
2022-09-02T00:10:07.636Z,32.15
2022-09-02T00:11:07.638Z,32.15
2022-09-02T00:12:07.638Z,31.95
2022-09-02T00:13:07.638Z,32.24
2022-09-02T00:14:07.639Z,31.95
2022-09-02T00:15:07.639Z,32.15
2022-09-02T00:16:07.691Z,32.24
2022-09-02T00:17:07.640Z,32.15
2022-09-02T00:18:12.544Z,32.15
2022-09-02T00:19:07.643Z,32.05
2022-09-02T00:20:07.642Z,32.05
2022-09-02T00:21:07.642Z,32.05
2022-09-02T00:22:07.643Z,32.24
2022-09-02T00:23:07.644Z,32.05
2022-09-02T00:24:07.657Z,31.95
2022-09-02T00:25:07.644Z,31.95
2022-09-02T00:26:07.644Z,32.15
2022-09-02T00:27:07.646Z,31.95
2022-09-02T00:28:07.647Z,31.95
2022-09-02T00:29:07.646Z,32.15
2022-09-02T00:30:07.645Z,32.15
2022-09-02T00:31:07.647Z,32.15
2022-09-02T00:32:07.699Z,31.95
2022-09-02T00:33:07.648Z,31.95
2022-09-02T00:34:07.647Z,32.15
2022-09-02T00:35:07.651Z,32.15
2022-09-02T00:36:07.654Z,31.95
2022-09-02T00:37:07.651Z,32.05
2022-09-02T00:38:07.650Z,32.05
2022-09-02T00:39:07.652Z,32.05
2022-09-02T00:40:07.745Z,32.15
2022-09-02T00:41:07.652Z,32.05
2022-09-02T00:42:07.651Z,31.95
2022-09-02T00:43:07.654Z,31.95
2022-09-02T00:44:07.657Z,32.05
2022-09-02T00:45:07.654Z,32.05
2022-09-02T00:46:07.827Z,31.95
2022-09-02T00:47:07.655Z,32.15
2022-09-02T00:48:07.655Z,31.95
2022-09-02T00:49:07.656Z,32.15
2022-09-02T00:50:07.655Z,32.05
2022-09-02T00:51:07.659Z,32.05
2022-09-02T00:52:07.656Z,32.05
2022-09-02T00:53:07.659Z,31.85
2022-09-02T00:54:07.657Z,32.05
2022-09-02T00:55:07.659Z,31.95
2022-09-02T00:56:07.661Z,32.15
2022-09-02T00:57:07.661Z,32.05
2022-09-02T00:58:09.482Z,32.15
2022-09-02T00:59:07.662Z,32.05
2022-09-02T01:00:07.661Z,32.05
2022-09-02T01:01:07.731Z,32.15
2022-09-02T01:02:07.872Z,31.95
2022-09-02T01:03:07.663Z,31.95
2022-09-02T01:04:07.662Z,32.15
2022-09-02T01:05:07.663Z,31.95
2022-09-02T01:06:07.664Z,32.15
2022-09-02T01:07:07.665Z,32.15
2022-09-02T01:08:07.667Z,31.95
2022-09-02T01:09:07.665Z,32.05
2022-09-02T01:10:07.665Z,32.05
2022-09-02T01:11:07.668Z,32.15
2022-09-02T01:12:07.667Z,32.05
2022-09-02T01:13:07.667Z,32.05
2022-09-02T01:14:07.677Z,32.15
2022-09-02T01:15:07.670Z,32.15
2022-09-02T01:16:07.707Z,32.15
2022-09-02T01:17:07.669Z,32.05
2022-09-02T01:18:07.669Z,32.24
2022-09-02T01:19:07.670Z,32.05
2022-09-02T01:20:07.671Z,32.05
2022-09-02T01:21:07.671Z,32.24
2022-09-02T01:22:07.676Z,32.15
2022-09-02T01:23:07.673Z,32.24
2022-09-02T01:24:07.672Z,32.24
2022-09-02T01:25:07.674Z,32.24
2022-09-02T01:26:07.673Z,32.15
2022-09-02T01:27:07.674Z,31.95
2022-09-02T01:28:07.710Z,31.95
2022-09-02T01:29:07.674Z,32.15
2022-09-02T01:30:07.677Z,32.15
2022-09-02T01:31:07.720Z,32.15
2022-09-02T01:32:07.676Z,32.15
2022-09-02T01:33:07.677Z,32.15
2022-09-02T01:34:07.676Z,31.95
2022-09-02T01:35:07.679Z,32.24
2022-09-02T01:36:07.679Z,32.15
2022-09-02T01:37:07.679Z,32.24
2022-09-02T01:38:07.678Z,32.34
2022-09-02T01:39:07.680Z,32.34
2022-09-02T01:40:07.722Z,32.34
2022-09-02T01:41:07.680Z,32.24
2022-09-02T01:42:07.686Z,32.34
2022-09-02T01:43:07.688Z,32.44
2022-09-02T01:44:07.683Z,32.44
2022-09-02T01:45:07.683Z,32.44
2022-09-02T01:46:07.683Z,32.44
2022-09-02T01:47:07.687Z,32.34
2022-09-02T01:48:07.687Z,32.44
2022-09-02T01:49:07.684Z,32.44
2022-09-02T01:50:07.684Z,32.34
2022-09-02T01:51:07.689Z,32.44
2022-09-02T01:52:07.686Z,32.34
2022-09-02T01:53:07.686Z,32.24
2022-09-02T01:54:07.689Z,32.24
2022-09-02T01:55:07.690Z,32.24
2022-09-02T01:56:07.688Z,32.44
2022-09-02T01:57:07.689Z,32.34
2022-09-02T01:58:07.688Z,32.34
2022-09-02T01:59:07.690Z,32.05
2022-09-02T02:00:07.691Z,32.05
2022-09-02T02:01:07.774Z,32.24
2022-09-02T02:02:07.806Z,32.15
2022-09-02T02:03:07.691Z,32.15
2022-09-02T02:04:12.681Z,32.15
2022-09-02T02:05:07.692Z,32.05
2022-09-02T02:06:07.692Z,32.05
2022-09-02T02:07:07.694Z,32.24
2022-09-02T02:08:07.694Z,32.15
2022-09-02T02:09:07.694Z,32.05
2022-09-02T02:10:07.694Z,32.34
2022-09-02T02:11:07.694Z,32.15
2022-09-02T02:12:07.696Z,32.05
2022-09-02T02:13:07.697Z,32.34
2022-09-02T02:14:07.695Z,32.24
2022-09-02T02:15:07.700Z,32.15
2022-09-02T02:16:07.817Z,32.15
2022-09-02T02:17:07.701Z,31.85
2022-09-02T02:18:07.696Z,31.76
2022-09-02T02:19:07.701Z,31.76
2022-09-02T02:20:07.698Z,31.66
2022-09-02T02:21:07.700Z,31.85
2022-09-02T02:22:07.699Z,31.95
2022-09-02T02:23:07.700Z,32.34
2022-09-02T02:24:07.701Z,32.15
2022-09-02T02:25:07.701Z,32.15
2022-09-02T02:26:07.701Z,32.15
2022-09-02T02:27:07.704Z,32.05
2022-09-02T02:28:07.702Z,32.05
2022-09-02T02:29:07.704Z,32.15
2022-09-02T02:30:07.703Z,32.05
2022-09-02T02:31:07.761Z,31.95
2022-09-02T02:32:07.704Z,31.57
2022-09-02T02:33:07.705Z,31.95
2022-09-02T02:34:07.704Z,31.66
2022-09-02T02:35:07.709Z,32.05
2022-09-02T02:36:07.706Z,31.95
2022-09-02T02:37:07.710Z,31.76
2022-09-02T02:38:07.706Z,31.66
2022-09-02T02:39:07.707Z,31.76
2022-09-02T02:40:07.802Z,31.85
2022-09-02T02:41:07.708Z,31.76
2022-09-02T02:42:07.708Z,31.66
2022-09-02T02:43:07.710Z,31.85
2022-09-02T02:44:07.710Z,31.76
2022-09-02T02:45:07.711Z,31.47
2022-09-02T02:46:07.751Z,31.57
2022-09-02T02:47:07.712Z,31.47
2022-09-02T02:48:07.711Z,31.76
2022-09-02T02:49:07.713Z,31.57
2022-09-02T02:50:07.713Z,31.76
2022-09-02T02:51:07.713Z,31.47
2022-09-02T02:52:07.713Z,31.76
2022-09-02T02:53:07.714Z,31.66
2022-09-02T02:54:07.713Z,31.76
2022-09-02T02:55:07.715Z,31.76
2022-09-02T02:56:07.715Z,31.76
2022-09-02T02:57:07.717Z,31.76
2022-09-02T02:58:07.715Z,31.76
2022-09-02T02:59:07.718Z,31.66
2022-09-02T03:00:07.717Z,31.66
2022-09-02T03:01:07.717Z,31.76
2022-09-02T03:02:07.959Z,31.76
2022-09-02T03:03:07.818Z,31.66
2022-09-02T03:04:07.719Z,31.76
2022-09-02T03:05:07.721Z,31.66
2022-09-02T03:06:07.720Z,31.47
2022-09-02T03:07:07.721Z,31.57
2022-09-02T03:08:07.720Z,31.76
2022-09-02T03:09:07.721Z,31.47
2022-09-02T03:10:07.721Z,31.66
2022-09-02T03:11:08.148Z,31.57
2022-09-02T03:12:07.729Z,31.76
2022-09-02T03:13:07.723Z,31.57
2022-09-02T03:14:07.723Z,31.37
2022-09-02T03:15:07.724Z,31.57
2022-09-02T03:16:07.799Z,31.37
2022-09-02T03:17:07.725Z,31.66
2022-09-02T03:18:07.725Z,31.57
2022-09-02T03:19:07.727Z,31.57
2022-09-02T03:20:07.726Z,31.57
2022-09-02T03:21:07.727Z,31.57
2022-09-02T03:22:07.728Z,31.66
2022-09-02T03:23:07.728Z,31.57
2022-09-02T03:24:07.728Z,31.57
2022-09-02T03:25:07.730Z,31.57
2022-09-02T03:26:07.732Z,31.47
2022-09-02T03:27:07.731Z,31.47
2022-09-02T03:28:07.729Z,31.37
2022-09-02T03:29:07.733Z,31.47
2022-09-02T03:30:07.729Z,31.57
2022-09-02T03:31:07.796Z,31.57
2022-09-02T03:32:07.959Z,31.37
2022-09-02T03:33:07.732Z,31.47
2022-09-02T03:34:07.731Z,31.57
2022-09-02T03:35:07.738Z,31.37
2022-09-02T03:36:07.738Z,31.47
2022-09-02T03:37:07.734Z,31.47
2022-09-02T03:38:07.736Z,31.37
2022-09-02T03:39:09.789Z,31.37
2022-09-02T03:40:07.809Z,31.37
2022-09-02T03:41:07.735Z,31.37
2022-09-02T03:42:07.736Z,31.37
2022-09-02T03:43:07.736Z,31.47
2022-09-02T03:44:07.737Z,31.47
2022-09-02T03:45:07.741Z,31.37
2022-09-02T03:46:07.813Z,31.08
2022-09-02T03:47:07.738Z,31.08
2022-09-02T03:48:07.740Z,31.27
2022-09-02T03:49:07.738Z,31.18
2022-09-02T03:50:07.741Z,31.08
2022-09-02T03:51:07.739Z,31.27
2022-09-02T03:52:07.741Z,31.27
2022-09-02T03:53:07.746Z,31.18
2022-09-02T03:54:07.748Z,31.18
2022-09-02T03:55:07.742Z,31.27
2022-09-02T03:56:07.743Z,31.27
2022-09-02T03:57:07.741Z,31.27
2022-09-02T03:58:08.699Z,31.27
2022-09-02T03:59:07.742Z,31.27
2022-09-02T04:00:07.745Z,31.37
2022-09-02T04:01:07.744Z,31.37
2022-09-02T04:02:07.954Z,31.47
2022-09-02T04:03:07.868Z,31.18
2022-09-02T04:04:07.748Z,31.27
2022-09-02T04:05:10.314Z,31.37
2022-09-02T04:06:07.747Z,31.37
2022-09-02T04:07:07.748Z,31.47
2022-09-02T04:08:07.748Z,31.37
2022-09-02T04:09:07.748Z,31.27
2022-09-02T04:10:07.749Z,31.47
2022-09-02T04:11:07.748Z,31.27
2022-09-02T04:12:07.750Z,31.37
2022-09-02T04:13:07.748Z,31.18
2022-09-02T04:14:07.751Z,31.27
2022-09-02T04:15:07.751Z,31.27
2022-09-02T04:16:07.784Z,31.27
2022-09-02T04:17:07.751Z,31.37
2022-09-02T04:18:07.752Z,31.27
2022-09-02T04:19:07.752Z,31.27
2022-09-02T04:20:07.754Z,31.37
2022-09-02T04:21:07.753Z,31.08
2022-09-02T04:22:07.753Z,31.27
2022-09-02T04:23:07.754Z,31.27
2022-09-02T04:24:07.756Z,31.18
2022-09-02T04:25:07.754Z,31.18
2022-09-02T04:26:07.756Z,31.18
2022-09-02T04:27:07.758Z,31.18
2022-09-02T04:28:07.757Z,31.08
2022-09-02T04:29:07.755Z,31.08
2022-09-02T04:30:07.758Z,31.27
2022-09-02T04:31:07.869Z,31.18
2022-09-02T04:32:07.759Z,31.08
2022-09-02T04:33:07.757Z,31.08
2022-09-02T04:34:07.760Z,31.08
2022-09-02T04:35:07.794Z,31.18
2022-09-02T04:36:07.773Z,31.27
2022-09-02T04:37:07.771Z,31.08
2022-09-02T04:38:07.775Z,31.08
2022-09-02T04:39:07.760Z,31.27
2022-09-02T04:40:07.868Z,31.27
2022-09-02T04:41:07.761Z,31.18
2022-09-02T04:42:07.764Z,31.08
2022-09-02T04:43:07.762Z,31.08
2022-09-02T04:44:07.764Z,31.08
2022-09-02T04:45:07.763Z,31.18
2022-09-02T04:46:07.840Z,31.08
2022-09-02T04:47:07.765Z,31.08
2022-09-02T04:48:07.766Z,31.18
2022-09-02T04:49:07.770Z,31.08
2022-09-02T04:50:07.767Z,31.08
2022-09-02T04:51:07.766Z,31.18
2022-09-02T04:52:07.768Z,31.18
2022-09-02T04:53:07.775Z,31.18
2022-09-02T04:54:07.767Z,31.08
2022-09-02T04:55:07.770Z,31.18
2022-09-02T04:56:07.769Z,31.27
2022-09-02T04:57:07.769Z,31.08
2022-09-02T04:58:07.771Z,31.18
2022-09-02T04:59:07.770Z,30.98
2022-09-02T05:00:07.771Z,31.27
2022-09-02T05:01:07.841Z,30.69
2022-09-02T05:02:07.931Z,30.88
2022-09-02T05:03:07.775Z,31.27
2022-09-02T05:04:07.774Z,30.79
2022-09-02T05:05:07.771Z,31.27
2022-09-02T05:06:07.774Z,30.69
2022-09-02T05:07:07.773Z,30.59
2022-09-02T05:08:07.905Z,30.69
2022-09-02T05:09:07.774Z,30.69
2022-09-02T05:10:07.774Z,30.69
2022-09-02T05:11:07.776Z,30.69
2022-09-02T05:12:07.777Z,30.98
2022-09-02T05:13:07.777Z,30.88
2022-09-02T05:14:07.784Z,30.88
2022-09-02T05:15:07.776Z,30.88
2022-09-02T05:16:07.851Z,30.88
2022-09-02T05:17:08.047Z,30.88
2022-09-02T05:18:07.809Z,30.79
2022-09-02T05:19:07.779Z,30.98
2022-09-02T05:20:07.780Z,30.98
2022-09-02T05:21:07.778Z,30.79
2022-09-02T05:22:07.780Z,30.98
2022-09-02T05:23:07.819Z,30.98
2022-09-02T05:24:07.782Z,30.98
2022-09-02T05:25:07.779Z,30.98
2022-09-02T05:26:07.781Z,30.88
2022-09-02T05:27:07.782Z,30.98
2022-09-02T05:28:07.784Z,30.98
2022-09-02T05:29:07.783Z,30.98
2022-09-02T05:30:07.785Z,31.08
2022-09-02T05:31:07.895Z,30.98
2022-09-02T05:32:07.784Z,31.08
2022-09-02T05:33:07.784Z,30.88
2022-09-02T05:34:07.786Z,30.98
2022-09-02T05:35:07.785Z,31.08
2022-09-02T05:36:07.789Z,30.88
2022-09-02T05:37:07.795Z,30.98
2022-09-02T05:38:07.787Z,31.08
2022-09-02T05:39:07.788Z,30.69
2022-09-02T05:40:08.008Z,30.69
2022-09-02T05:41:07.788Z,30.79
2022-09-02T05:42:07.793Z,30.69
2022-09-02T05:43:07.789Z,30.59
2022-09-02T05:44:07.791Z,30.98
2022-09-02T05:45:07.789Z,30.69
2022-09-02T05:46:07.871Z,30.50
2022-09-02T05:47:07.790Z,30.50
2022-09-02T05:48:07.791Z,30.50
2022-09-02T05:49:07.937Z,30.59
2022-09-02T05:50:07.926Z,30.50
2022-09-02T05:51:07.792Z,30.59
2022-09-02T05:52:07.794Z,30.50
2022-09-02T05:53:11.113Z,30.40
2022-09-02T05:54:07.793Z,30.50
2022-09-02T05:55:07.794Z,30.59
2022-09-02T05:56:07.795Z,30.40
2022-09-02T05:57:07.793Z,30.59
2022-09-02T05:58:07.795Z,30.50
2022-09-02T05:59:07.794Z,30.50
2022-09-02T06:00:07.808Z,30.59
2022-09-02T06:01:07.795Z,30.69
2022-09-02T06:02:07.973Z,30.40
2022-09-02T06:03:07.865Z,30.50
2022-09-02T06:04:07.799Z,30.59
2022-09-02T06:05:07.798Z,30.59
2022-09-02T06:06:07.798Z,30.59
2022-09-02T06:07:07.797Z,30.50
2022-09-02T06:08:07.800Z,30.50
2022-09-02T06:09:07.798Z,30.50
2022-09-02T06:10:07.803Z,30.50
2022-09-02T06:11:07.802Z,30.50
2022-09-02T06:12:07.801Z,30.50
2022-09-02T06:13:07.800Z,30.50
2022-09-02T06:14:07.805Z,30.50
2022-09-02T06:15:07.802Z,30.59
2022-09-02T06:16:07.846Z,30.50
2022-09-02T06:17:07.803Z,30.50
2022-09-02T06:18:07.803Z,30.50
2022-09-02T06:19:07.805Z,30.40
2022-09-02T06:20:07.805Z,30.50
2022-09-02T06:21:07.804Z,30.59
2022-09-02T06:22:07.810Z,30.40
2022-09-02T06:23:07.805Z,30.40
2022-09-02T06:24:07.806Z,30.50
2022-09-02T06:25:07.806Z,30.40
2022-09-02T06:26:07.806Z,30.21
2022-09-02T06:27:07.806Z,30.40
2022-09-02T06:28:07.809Z,30.50
2022-09-02T06:29:07.807Z,30.40
2022-09-02T06:30:07.809Z,30.50
2022-09-02T06:31:07.929Z,30.59
2022-09-02T06:32:07.814Z,30.50
2022-09-02T06:33:07.809Z,30.21
2022-09-02T06:34:07.810Z,30.59
2022-09-02T06:35:07.810Z,30.50
2022-09-02T06:36:07.812Z,30.50
2022-09-02T06:37:07.812Z,30.40
2022-09-02T06:38:07.813Z,30.59
2022-09-02T06:39:07.812Z,30.30
2022-09-02T06:40:07.915Z,30.40
2022-09-02T06:41:07.812Z,30.50
2022-09-02T06:42:07.812Z,30.40
2022-09-02T06:43:07.814Z,30.30
2022-09-02T06:44:07.815Z,30.01
2022-09-02T06:45:07.813Z,30.40
2022-09-02T06:46:07.875Z,30.40
2022-09-02T06:47:07.815Z,30.21
2022-09-02T06:48:07.818Z,30.21
2022-09-02T06:49:07.815Z,30.30
2022-09-02T06:50:07.817Z,30.40
2022-09-02T06:51:07.818Z,30.30
2022-09-02T06:52:07.818Z,30.30
2022-09-02T06:53:07.817Z,30.30
2022-09-02T06:54:07.818Z,30.30
2022-09-02T06:55:07.818Z,30.30
2022-09-02T06:56:07.823Z,30.30
2022-09-02T06:57:07.824Z,30.11
2022-09-02T06:58:07.822Z,30.21
2022-09-02T06:59:07.821Z,30.11
2022-09-02T07:00:07.823Z,30.30
2022-09-02T07:01:07.894Z,30.22
2022-09-02T07:02:08.017Z,30.21
2022-09-02T07:03:07.822Z,30.21
2022-09-02T07:04:07.825Z,30.30
2022-09-02T07:05:07.824Z,30.30
2022-09-02T07:06:07.825Z,30.21
2022-09-02T07:07:07.824Z,30.30
2022-09-02T07:08:07.826Z,29.93
2022-09-02T07:09:07.827Z,30.30
2022-09-02T07:10:07.827Z,30.21
2022-09-02T07:11:07.826Z,30.21
2022-09-02T07:12:07.827Z,30.30
2022-09-02T07:13:07.827Z,30.30
2022-09-02T07:14:07.830Z,30.30
2022-09-02T07:15:07.829Z,30.22
2022-09-02T07:16:07.829Z,30.30
2022-09-02T07:17:07.915Z,30.21
2022-09-02T07:18:07.831Z,30.22
2022-09-02T07:19:13.225Z,30.22
2022-09-02T07:20:07.833Z,30.01
2022-09-02T07:21:07.832Z,29.82
2022-09-02T07:22:07.833Z,29.93
2022-09-02T07:23:07.832Z,30.22
2022-09-02T07:24:07.834Z,30.21
2022-09-02T07:25:07.834Z,30.22
2022-09-02T07:26:07.835Z,30.21
2022-09-02T07:27:07.834Z,30.30
2022-09-02T07:28:07.836Z,30.22
2022-09-02T07:29:07.833Z,29.82
2022-09-02T07:30:07.838Z,30.21
2022-09-02T07:31:07.874Z,30.21
2022-09-02T07:32:07.838Z,30.22
2022-09-02T07:33:07.837Z,30.30
2022-09-02T07:34:07.838Z,30.11
2022-09-02T07:35:07.838Z,30.22
2022-09-02T07:36:10.987Z,30.12
2022-09-02T07:37:10.941Z,30.32
2022-09-02T07:38:07.842Z,30.22
2022-09-02T07:39:07.841Z,30.21
2022-09-02T07:40:07.976Z,30.21
2022-09-02T07:41:07.842Z,30.21
2022-09-02T07:42:07.879Z,30.11
2022-09-02T07:43:07.843Z,30.30
2022-09-02T07:44:07.844Z,30.51
2022-09-02T07:45:07.846Z,30.30
2022-09-02T07:46:07.957Z,30.21
2022-09-02T07:47:07.844Z,30.40
2022-09-02T07:48:07.845Z,30.40
2022-09-02T07:49:09.114Z,30.30
2022-09-02T07:50:17.991Z,30.21
2022-09-02T07:51:07.845Z,30.21
2022-09-02T07:52:07.851Z,30.30
2022-09-02T07:53:07.847Z,30.21
2022-09-02T07:54:07.859Z,30.32
2022-09-02T07:55:10.308Z,30.30
2022-09-02T07:56:07.850Z,30.01
2022-09-02T07:57:07.849Z,30.30
2022-09-02T07:58:07.850Z,30.40
2022-09-02T07:59:07.852Z,30.40
2022-09-02T08:00:07.851Z,30.01
2022-09-02T08:01:07.985Z,30.11
2022-09-02T08:02:07.919Z,30.30
2022-09-02T08:04:07.853Z,30.30
2022-09-02T08:05:07.853Z,30.30
2022-09-02T08:06:07.853Z,30.50
2022-09-02T08:07:07.857Z,30.21
2022-09-02T08:08:07.854Z,30.30
2022-09-02T08:09:07.855Z,30.59
2022-09-02T08:10:07.855Z,30.59
2022-09-02T08:11:07.861Z,30.59
2022-09-02T08:12:07.861Z,30.50
2022-09-02T08:13:07.868Z,30.50
2022-09-02T08:14:07.857Z,30.69
2022-09-02T08:15:07.865Z,30.69
2022-09-02T08:16:07.940Z,31.08
2022-09-02T08:17:07.860Z,30.69
2022-09-02T08:18:08.572Z,30.69
2022-09-02T08:19:07.860Z,30.79
2022-09-02T08:20:11.811Z,30.88
2022-09-02T08:21:07.862Z,30.98
2022-09-02T08:22:07.860Z,30.88
2022-09-02T08:23:12.436Z,31.08
2022-09-02T08:24:07.865Z,30.98
2022-09-02T08:25:07.864Z,30.98
2022-09-02T08:26:07.862Z,31.08
2022-09-02T08:27:07.868Z,30.98
2022-09-02T08:28:08.076Z,30.88
2022-09-02T08:29:07.866Z,30.98
2022-09-02T08:30:07.864Z,30.98
2022-09-02T08:31:07.869Z,30.98
2022-09-02T08:32:07.886Z,30.98
2022-09-02T08:33:07.867Z,30.98
2022-09-02T08:34:07.868Z,30.88
2022-09-02T08:35:07.868Z,30.79
2022-09-02T08:36:07.868Z,30.69
2022-09-02T08:37:07.868Z,31.18
2022-09-02T08:38:07.867Z,30.79
2022-09-02T08:39:07.872Z,30.98
2022-09-02T08:40:07.980Z,30.69
2022-09-02T08:41:07.871Z,31.08
2022-09-02T08:42:07.871Z,30.69
2022-09-02T08:43:07.871Z,31.27
2022-09-02T08:44:07.870Z,31.08
2022-09-02T08:45:07.871Z,31.08
2022-09-02T08:46:07.918Z,31.27
2022-09-02T08:47:07.873Z,31.08
2022-09-02T08:48:07.873Z,31.08
2022-09-02T08:49:07.873Z,31.18
2022-09-02T08:50:07.876Z,31.18
2022-09-02T08:51:07.875Z,31.18
2022-09-02T08:52:07.877Z,31.08
2022-09-02T08:53:07.877Z,31.08
2022-09-02T08:54:07.881Z,31.08
2022-09-02T08:55:07.877Z,31.18
2022-09-02T08:56:07.878Z,31.08
2022-09-02T08:57:07.881Z,31.27
2022-09-02T08:58:07.957Z,31.18
2022-09-02T08:59:07.878Z,31.27
2022-09-02T09:00:07.879Z,31.18
2022-09-02T09:01:07.954Z,31.27
2022-09-02T09:02:07.933Z,31.27
2022-09-02T09:03:07.881Z,31.27
2022-09-02T09:04:07.883Z,31.27
2022-09-02T09:05:07.881Z,31.37
2022-09-02T09:06:07.881Z,31.27
2022-09-02T09:07:07.883Z,31.18
2022-09-02T09:08:09.761Z,31.47
2022-09-02T09:09:07.884Z,31.27
2022-09-02T09:10:07.882Z,31.37
2022-09-02T09:11:07.885Z,31.47
2022-09-02T09:12:07.883Z,31.37
2022-09-02T09:13:07.887Z,31.27
2022-09-02T09:14:07.885Z,31.37
2022-09-02T09:15:07.887Z,31.47
2022-09-02T09:16:08.051Z,31.37
2022-09-02T09:17:07.887Z,31.27
2022-09-02T09:18:07.890Z,31.27
2022-09-02T09:19:08.873Z,31.37
2022-09-02T09:20:07.893Z,31.47
2022-09-02T09:21:07.961Z,31.37
2022-09-02T09:22:07.889Z,31.27
2022-09-02T09:23:07.889Z,31.47
2022-09-02T09:24:07.895Z,31.57
2022-09-02T09:25:07.890Z,31.47
2022-09-02T09:26:07.890Z,31.47
2022-09-02T09:27:07.892Z,31.47
2022-09-02T09:28:07.893Z,31.57
2022-09-02T09:29:07.894Z,31.47
2022-09-02T09:30:10.506Z,31.57
2022-09-02T09:31:07.893Z,31.76
2022-09-02T09:32:07.896Z,31.37
2022-09-02T09:33:07.899Z,31.47
2022-09-02T09:34:07.902Z,31.66
2022-09-02T09:35:07.954Z,31.76
2022-09-02T09:36:07.899Z,31.76
2022-09-02T09:37:07.898Z,31.76
2022-09-02T09:38:07.896Z,31.66
2022-09-02T09:39:07.900Z,31.57
2022-09-02T09:40:07.951Z,31.85
2022-09-02T09:41:07.898Z,31.76
2022-09-02T09:42:07.899Z,31.66
2022-09-02T09:43:13.148Z,31.76
2022-09-02T09:44:07.899Z,31.85
2022-09-02T09:45:07.899Z,31.85
2022-09-02T09:46:07.973Z,31.66
2022-09-02T09:47:07.902Z,31.76
2022-09-02T09:48:07.905Z,31.85
2022-09-02T09:49:07.902Z,31.66
2022-09-02T09:50:07.900Z,31.95
2022-09-02T09:51:07.904Z,32.05
2022-09-02T09:52:07.903Z,32.34
2022-09-02T09:53:07.904Z,32.15
2022-09-02T09:54:07.904Z,32.34
2022-09-02T09:55:07.905Z,32.34
2022-09-02T09:56:07.908Z,32.24
2022-09-02T09:57:07.915Z,32.34
2022-09-02T09:58:07.911Z,32.34
2022-09-02T09:59:07.910Z,32.34
2022-09-02T10:00:07.907Z,32.05
2022-09-02T10:01:07.958Z,32.15
2022-09-02T10:02:07.954Z,32.24
2022-09-02T10:03:07.909Z,32.15
2022-09-02T10:04:20.713Z,32.15
2022-09-02T10:05:07.909Z,32.34
2022-09-02T10:06:07.909Z,32.05
2022-09-02T10:07:07.912Z,32.15
2022-09-02T10:08:10.085Z,32.05
2022-09-02T10:09:07.911Z,32.24
2022-09-02T10:10:07.912Z,32.24
2022-09-02T10:11:07.915Z,32.05
2022-09-02T10:12:07.916Z,32.34
2022-09-02T10:13:07.983Z,32.44
2022-09-02T10:14:07.913Z,32.24
2022-09-02T10:15:07.915Z,32.34
2022-09-02T10:16:07.994Z,32.24
2022-09-02T10:17:07.915Z,32.44
2022-09-02T10:18:07.915Z,32.24
2022-09-02T10:19:07.918Z,32.44
2022-09-02T10:20:07.917Z,32.34
2022-09-02T10:21:16.062Z,32.15
2022-09-02T10:22:07.918Z,32.44
2022-09-02T10:23:07.918Z,32.24
2022-09-02T10:24:07.920Z,32.44
2022-09-02T10:25:07.918Z,32.44
2022-09-02T10:26:07.919Z,32.34
2022-09-02T10:27:07.928Z,32.73
2022-09-02T10:28:07.919Z,32.34
2022-09-02T10:29:07.921Z,32.64
2022-09-02T10:30:07.920Z,32.73
2022-09-02T10:31:07.975Z,32.73
2022-09-02T10:32:07.923Z,32.54
2022-09-02T10:33:07.922Z,32.54
2022-09-02T10:34:07.922Z,32.73
2022-09-02T10:35:07.925Z,32.64
2022-09-02T10:36:07.924Z,32.64
2022-09-02T10:37:07.925Z,32.44
2022-09-02T10:38:07.926Z,32.82
2022-09-02T10:39:07.927Z,32.92
2022-09-02T10:40:07.997Z,32.82
2022-09-02T10:41:07.927Z,32.82
2022-09-02T10:42:07.926Z,32.82
2022-09-02T10:43:07.932Z,32.54
2022-09-02T10:44:07.929Z,32.44
2022-09-02T10:45:07.928Z,32.64
2022-09-02T10:46:07.927Z,32.64
2022-09-02T10:47:07.934Z,32.92
2022-09-02T10:48:07.931Z,32.73
2022-09-02T10:49:07.931Z,32.82
2022-09-02T10:50:07.931Z,33.02
2022-09-02T10:51:07.931Z,32.73
2022-09-02T10:52:07.994Z,32.92
2022-09-02T10:53:09.475Z,33.02
2022-09-02T10:54:07.932Z,32.92
2022-09-02T10:55:07.937Z,32.92
2022-09-02T10:56:07.933Z,33.12
2022-09-02T10:57:07.979Z,33.22
2022-09-02T10:58:07.936Z,33.31
2022-09-02T10:59:07.943Z,33.22
2022-09-02T11:00:07.936Z,33.02
2022-09-02T11:01:08.013Z,33.31
2022-09-02T11:02:07.937Z,33.12
2022-09-02T11:03:07.993Z,33.22
2022-09-02T11:04:08.091Z,32.82
2022-09-02T11:05:07.942Z,33.51
2022-09-02T11:06:07.938Z,32.82
2022-09-02T11:07:07.940Z,33.12
2022-09-02T11:08:07.940Z,33.31
2022-09-02T11:09:07.941Z,33.51
2022-09-02T11:10:07.940Z,33.12
2022-09-02T11:11:07.942Z,33.22
2022-09-02T11:12:07.941Z,33.02
2022-09-02T11:13:07.942Z,33.31
2022-09-02T11:14:07.943Z,33.31
2022-09-02T11:15:07.944Z,33.31
2022-09-02T11:16:07.994Z,33.12
2022-09-02T11:17:13.367Z,33.22
2022-09-02T11:18:08.000Z,33.31
2022-09-02T11:19:07.946Z,33.31
2022-09-02T11:20:07.947Z,33.31
2022-09-02T11:21:07.948Z,33.12
2022-09-02T11:22:07.945Z,33.41
2022-09-02T11:23:07.980Z,33.61
2022-09-02T11:24:07.948Z,33.31
2022-09-02T11:25:07.950Z,33.31
2022-09-02T11:26:07.950Z,33.31
2022-09-02T11:27:15.760Z,33.31
2022-09-02T11:28:07.949Z,33.41
2022-09-02T11:29:07.950Z,33.41
2022-09-02T11:30:07.951Z,33.41
2022-09-02T11:31:07.952Z,33.51
2022-09-02T11:32:07.952Z,33.70
2022-09-02T11:33:07.953Z,33.80
2022-09-02T11:34:08.035Z,33.31
2022-09-02T11:35:07.955Z,33.51
2022-09-02T11:36:07.953Z,33.70
2022-09-02T11:37:07.955Z,33.41
2022-09-02T11:38:07.954Z,33.61
2022-09-02T11:39:07.959Z,33.70
2022-09-02T11:40:30.401Z,33.61
2022-09-02T11:42:07.989Z,33.70
2022-09-02T11:43:07.959Z,33.61
2022-09-02T11:44:07.959Z,33.99
2022-09-02T11:45:08.014Z,33.61
2022-09-02T11:46:07.985Z,33.61
2022-09-02T11:47:07.960Z,33.80
2022-09-02T11:48:07.960Z,33.61
2022-09-02T11:49:08.381Z,33.61
2022-09-02T11:50:07.961Z,33.90
2022-09-02T11:51:08.000Z,33.99
2022-09-02T11:52:07.963Z,33.99
2022-09-02T11:53:07.963Z,33.99
2022-09-02T11:54:07.962Z,33.70
2022-09-02T11:55:07.965Z,33.99
2022-09-02T11:56:07.963Z,33.80
2022-09-02T11:57:07.964Z,33.70
2022-09-02T11:58:07.963Z,33.80
2022-09-02T11:59:07.969Z,33.80
2022-09-02T12:00:07.966Z,33.80
2022-09-02T12:01:07.967Z,33.90
2022-09-02T12:02:07.965Z,33.80
2022-09-02T12:03:28.400Z,33.90
2022-09-02T12:05:08.544Z,33.80
2022-09-02T12:06:08.175Z,33.70
2022-09-02T12:07:09.565Z,33.90
2022-09-02T12:08:07.971Z,33.90
2022-09-02T12:09:07.989Z,33.80
2022-09-02T12:10:07.978Z,33.90
2022-09-02T12:11:07.974Z,33.90
2022-09-02T12:12:07.972Z,33.99
2022-09-02T12:13:09.710Z,33.90
2022-09-02T12:14:08.320Z,33.90
2022-09-02T12:15:07.996Z,33.90
2022-09-02T12:16:08.044Z,33.99
2022-09-02T12:17:07.974Z,33.80
2022-09-02T12:18:07.983Z,33.90
2022-09-02T12:19:08.012Z,33.80
2022-09-02T12:20:07.996Z,33.99
2022-09-02T12:21:07.980Z,33.80
2022-09-02T12:22:07.978Z,33.99
2022-09-02T12:23:08.003Z,33.80
2022-09-02T12:24:07.990Z,33.90
2022-09-02T12:25:08.007Z,33.80
2022-09-02T12:26:07.982Z,33.99
2022-09-02T12:27:07.983Z,33.99
2022-09-02T12:28:07.984Z,33.80
2022-09-02T12:29:07.993Z,33.90
2022-09-02T12:30:07.999Z,33.90
2022-09-02T12:31:08.072Z,33.80
2022-09-02T12:32:07.990Z,33.99
2022-09-02T12:33:07.982Z,33.99
2022-09-02T12:34:07.990Z,34.09
2022-09-02T12:35:07.999Z,34.09
2022-09-02T12:36:08.009Z,34.28
2022-09-02T12:37:07.989Z,34.09
2022-09-02T12:38:08.015Z,34.28
2022-09-02T12:39:09.866Z,34.28
2022-09-02T12:40:09.768Z,34.19
2022-09-02T12:41:08.077Z,34.28
2022-09-02T12:42:07.987Z,34.38
2022-09-02T12:43:07.994Z,34.28
2022-09-02T12:44:08.009Z,34.28
2022-09-02T12:45:08.014Z,34.28
2022-09-02T12:46:08.061Z,34.28
2022-09-02T12:47:07.992Z,33.90
2022-09-02T12:48:08.028Z,33.99
2022-09-02T12:49:08.001Z,34.09
2022-09-02T12:50:08.228Z,34.30
2022-09-02T12:51:08.001Z,34.58
2022-09-02T12:52:08.007Z,34.28
2022-09-02T12:53:07.992Z,34.19
2022-09-02T12:54:07.994Z,34.11
2022-09-02T12:55:07.993Z,34.40